ADDS TAF Data INFO
IDs: Format: Raw Decoded Include METARs

Data at: 1322 UTC 19 Jul 2018

KFMY 191129Z 1912/2012 16003KT P6SM FEW025 SCT200
  FM191400 23010KT P6SM VCTS SCT025CB BKN150
  FM192200 26007KT P6SM FEW035 SCT200
  FM200400 20003KT P6SM FEW035 SCT200